x

9444090 - Port Angeles, Wa (ptaw1) Weather Station

5:36 - Fri 28th Nov 2014 All times are PST. -8 hours from GMT.

  • Wind
    18mph, 30mph gusts
  • Sea Temp 49°f
  • Ar Temp 47°f
  • Sea Pressure 1000.5mb
  • 9444090 - Port Angeles, Wa
  • 9444090 - Port Angeles, Wa

More Historic Weather Station data

Upgrade to MSW Pro to gain access to the past 30 days of data for over 8000 Wavebouys and Weather Stations around the globe.

Join Pro

Comparision Forecast

View Surf forecast
   
Sex 11/28 5:36 18 30 mph 1000.5mb 49f 47f
5:30 17 25 mph 1000.5mb 49f 47f
5:24 15 26 mph 1000.6mb 49f 47f
5:18 20 25 mph 1000.5mb 49f 47f
5:12 18 29 mph 1000.6mb 49f 47f
5:06 22 31 mph 1000.6mb 49f 47f
5:00 22 32 mph 1000.6mb 49f 47f
4:36 28 36 mph 1000.8mb 49f 47f
4:30 25 32 mph 1000.7mb 49f 47f
4:24 22 30 mph 1000.6mb 49f 47f
4:18 21 26 mph 1000.7mb 49f 47f
4:12 22 29 mph 1000.8mb 49f 47f
4:06 25 34 mph 1000.8mb 49f 47f
4:00 26 34 mph 1000.9mb 49f 47f
3:36 25 33 mph 1001.1mb 49f 48f
3:30 23 31 mph 1001.1mb 49f 48f
3:24 20 29 mph 1001.2mb 49f 49f
3:18 20 25 mph 1001.2mb 49f 49f
3:12 20 25 mph 1001.1mb 49f 49f
3:06 16 24 mph 1001.2mb 49f 49f
3:00 18 28 mph 1001.2mb 49f 49f
2:36 2 5 mph 1000.7mb 49f 51f
2:30 2 5 mph 1000.6mb 49f 51f
2:24 5 8 mph 1000.5mb 49f 51f
2:18 6 7 mph 1000.7mb 49f 51f
2:12 3 6 mph 1000.7mb 49f 51f
2:06 5 8 mph 1000.8mb 49f 51f
2:00 5 6 mph 1000.7mb 49f 51f
1:36 3 6 mph 1001.1mb 49f 51f
1:30 5 6 mph 1001.3mb 49f 51f
1:24 2 3 mph 1001.4mb 49f 51f
1:18 2 3 mph 1001.3mb 49f 51f
1:12 3
mph
1001.2mb 49f 51f
1:06 5 7 mph 1000.8mb 49f 51f
1:00 3 8 mph 1001.4mb 49f 52f
12:36 2 3 mph 1001.4mb 49f 52f
12:30 5 6 mph 1001.5mb 49f 51f
12:24 2
mph
1001.7mb 49f 51f
12:18  -  2 mph 1001.7mb 49f 52f
12:12 2 3 mph 1001.8mb 49f 51f
12:06 2 3 mph 1001.8mb 49f 52f
12:00 1 3 mph 1001.7mb 49f 53f
Qui 11/27 11:36  -  2 mph 1001.5mb 49f 52f
11:30 1 5 mph 1001.6mb 49f 52f
11:24 3 7 mph 1001.7mb 49f 52f
11:18 6 7 mph 1001.7mb 49f 52f
11:12 5 6 mph 1001.7mb 49f 53f
11:06 5 6 mph 1001.7mb 49f 52f
11:00 6 7 mph 1001.8mb 49f 53f
10:36 5 8 mph 1002.2mb 49f 52f
10:30 2 5 mph 1002.2mb 49f 52f
10:24 2 3 mph 1002.5mb 49f 52f
10:18 2 3 mph 1002.5mb 49f 52f
10:12  -  5 mph 1002.7mb 49f 52f
10:06 3 5 mph 1002.8mb 49f 52f
10:00 2 3 mph 1002.7mb 49f 52f
9:36 5 6 mph 1002.6mb 49f 52f
9:30 2 5 mph 1002.5mb 49f 53f
9:24 3 6 mph 1002.5mb 49f 53f
9:18 5 7 mph 1002.4mb 49f 53f
9:12 6 8 mph 1002.6mb 49f 52f
9:06 5 7 mph 1002.7mb 49f 53f
9:00 5 9 mph 1002.6mb 49f 53f
8:36 5 6 mph 1002.7mb 49f 52f
8:30 6 7 mph 1003.4mb 49f 52f
8:24 3 5 mph 1003.6mb 49f 52f
8:18 3
mph
1003.8mb 49f 52f
8:12 5 7 mph 1003.5mb 49f 52f
8:06 2 3 mph 1003.6mb 49f 52f
8:00 3 8 mph 1003.6mb 49f 52f
7:36 3 5 mph 1003.7mb 49f 52f
7:30 3 5 mph 1003.6mb 49f 53f
7:24 3 6 mph 1003.7mb 49f 52f
7:18 2 5 mph 1003.6mb 49f 53f
7:12 3 6 mph 1003.7mb 49f 52f
7:06 5 6 mph 1003.7mb 49f 52f
7:00  -  2 mph 1003.7mb 49f 53f
6:36 3 7 mph 1003.9mb 49f 52f
6:30 3 6 mph 1003.8mb 49f 53f
6:24 6 7 mph 1003.8mb 49f 53f
6:18 5 7 mph 1003.8mb 49f 53f
6:12 3 6 mph 1004mb 49f 53f
6:06 3 5 mph 1003.8mb 49f 53f
6:00 2 3 mph 1003.9mb 49f 53f
5:36 2 5 mph 1004.3mb 49f 53f
5:30 3 5 mph 1004.3mb 49f 53f
5:24 5 7 mph 1004.3mb 49f 53f
5:18 3 5 mph 1004.3mb 49f 54f
5:12 1 3 mph 1004.5mb 49f 54f
5:06 5 6 mph 1004.7mb 49f 54f
5:00 2 3 mph 1004.7mb 49f 53f
4:36 3 5 mph 1005mb 49f 53f
4:30  -  3 mph 1004.9mb 49f 53f
4:24 5
mph
1005mb 49f 52f
4:18 3 5 mph 1004.8mb 49f 54f
4:12 2 3 mph 1004.9mb 49f 53f
4:06 2
mph
1004.8mb 49f 54f
4:00  -  2 mph 1004.9mb 49f 54f
3:36  -  2 mph 1005mb 49f 55f
3:30 1 2 mph 1005.1mb 49f 55f
3:24  -  2 mph 1005.3mb 49f 55f
3:18 3 5 mph 1005.2mb 49f 54f
3:12  -  1 mph 1005.2mb 49f 55f
3:06  -  1 mph 1005.3mb 49f 55f
3:00  -  2 mph 1005.3mb 49f 55f
2:36 3 5 mph 1005.6mb 49f 53f
2:30 3
mph
1005.6mb 49f 54f
2:24 2 5 mph 1005.7mb 49f 53f
2:18 5
mph
1005.8mb 49f 53f
2:12 3 5 mph 1005.8mb 49f 53f
2:06 2 3 mph 1005.9mb 49f 54f
2:00 2 3 mph - - -
1:36 2
mph
1005.8mb 49f 56f
1:30  -  2 mph 1005.9mb 49f 56f
1:24 1 2 mph 1005.9mb 49f 56f
1:18  -  1 mph 1006mb 49f 56f
1:12  -  1 mph 1006mb 49f 56f
1:06 1 3 mph 1006.1mb 49f 55f
1:00 1 2 mph 1006.2mb 49f 55f
12:36  -  1 mph 1006.4mb 49f 55f
12:30  -  2 mph 1006.5mb 49f 55f
12:24 1 2 mph 1006.4mb 49f 55f
12:18  -  2 mph 1006.6mb 49f 55f
12:12 3 5 mph 1006.7mb 49f 54f
12:06 2 3 mph 1006.7mb 49f 55f
12:00 1 3 mph 1006.8mb 49f 55f
11:36 6 7 mph 1006.7mb 49f 56f
11:30 5 6 mph 1007mb 49f 56f
11:24 6 7 mph 1006.9mb 49f 56f
11:18 3 5 mph 1007mb 49f 58f
11:12 5 6 mph 1006.8mb 49f 58f
11:06 3 6 mph 1006.9mb 49f 58f
11:00 3 5 mph 1007mb 49f 58f
10:36 2 5 mph 1007.5mb 49f 56f
10:30 3 7 mph 1007.4mb 49f 55f
10:24 3 6 mph 1007.3mb 49f 55f
10:18 5 8 mph 1007.4mb 49f 54f
10:12 5 6 mph 1007.4mb 49f 53f
10:06 5
mph
1007.5mb 49f 53f
10:00 3 5 mph 1007.6mb 49f 53f
9:36 5 6 mph 1007.7mb 49f 51f
9:30 2 3 mph 1007.8mb 49f 50f
9:24  -  5 mph 1007.7mb 49f 51f
9:18 3 5 mph 1007.8mb 49f 51f
9:12 3 6 mph 1007.7mb 49f 50f
9:06 2 3 mph 1007.5mb 49f 50f
9:00 1 5 mph 1007.6mb 49f 50f
8:36 3 6 mph 1007.3mb 49f 49f
8:30 5 6 mph 1007.3mb 49f 49f
8:24 7 9 mph 1007.2mb 49f 49f
8:18 2 6 mph 1007.3mb 49f 50f
8:12 5 6 mph 1007.2mb 49f 51f
8:06 1 3 mph - - -
8:00 1 3 mph 1007.4mb 49f 50f
7:36 2 3 mph 1007.2mb 49f 50f
7:30 2 5 mph 1007.3mb 49f 50f
7:24 3 5 mph 1007.5mb 49f 50f
7:18  -  2 mph 1007.4mb 49f 51f
7:12 1 3 mph 1007.6mb 49f 50f
7:06 2 5 mph 1007.4mb 49f 51f
7:00 1 2 mph 1007.4mb 49f 50f
6:54 3 7 mph 1007.5mb 49f 51f
6:48 5 6 mph 1007.4mb 49f 51f
6:36 2 3 mph 1007.4mb 49f 51f
6:30  -  1 mph 1007.4mb 49f 51f
6:24 2 5 mph 1007.4mb 49f 51f
6:18 2 9 mph 1007.5mb 49f 51f
6:12 5 9 mph 1007.2mb 49f 51f
6:06 3 7 mph 1007.2mb 49f 50f
6:00 6 7 mph 1007.3mb 49f 50f
5:54  -  3 mph 1007.4mb 49f 51f
5:48 3 5 mph 1007.4mb 49f 51f
5:36 3 9 mph 1007.4mb 49f 51f
5:30 7 8 mph 1007.4mb 49f 51f
5:24 8 10 mph 1007.6mb 49f 51f
5:18 7 8 mph 1007.5mb 49f 51f
5:12 8 10 mph 1007.5mb 49f 51f
5:06 6 8 mph 1007.5mb 49f 50f
5:00 2 5 mph 1007.6mb 49f 52f
4:54 5 6 mph 1007.7mb 49f 51f
4:48 6 10 mph 1007.6mb 49f 52f
4:36 5 7 mph 1007.7mb 49f 51f
4:30 6 7 mph 1007.5mb 49f 53f
4:24 3 6 mph 1007.5mb 49f 51f
4:18 2 5 mph 1007.4mb 49f 52f
4:12 3 6 mph 1007.4mb 49f 54f
4:06 2 7 mph 1007.5mb 49f 52f
4:00 2 5 mph 1007.6mb 49f 52f
3:54 3 6 mph 1007.7mb 49f 53f
3:48 6 9 mph 1007.8mb 49f 55f
3:36 7 9 mph 1008.1mb 49f 53f
3:30 5 9 mph 1008.3mb 49f 53f
3:24 8 9 mph 1008.3mb 49f 52f
3:18 6 9 mph 1008.4mb 49f 52f
3:12 8 9 mph 1008.5mb 49f 51f
3:06 6 8 mph 1008.4mb 49f 51f
3:00 6 8 mph 1008.3mb 49f 52f
2:54 6 9 mph 1008.3mb 49f 51f
2:48 7 9 mph 1008.4mb 49f 51f
2:36 6 10 mph 1008.5mb 49f 51f
2:30 8 10 mph 1008.2mb 49f 51f
2:24 10 15 mph 1008.2mb 49f 51f
2:18 14 16 mph 1008mb 49f 50f
2:12 13 14 mph 1008mb 49f 50f
2:06 13 16 mph 1007.8mb 49f 50f
2:00 3 5 mph 1007.6mb 49f 50f
1:54 6 8 mph 1007.4mb 49f 51f
1:48 5 8 mph 1007.4mb 49f 51f
1:36 6 7 mph 1007.4mb 49f 50f
1:30 6 7 mph 1007.5mb 49f 51f
1:24 2 3 mph 1007.5mb 49f 51f
1:18  -  3 mph 1007.5mb 49f 51f
1:12 3 6 mph 1007.7mb 49f 51f
1:06 6 7 mph 1007.9mb 49f 51f
1:00 6 8 mph 1008mb 49f 51f
12:54 5 7 mph 1008.2mb 49f 52f
12:48 5 7 mph 1008.2mb 49f 51f
12:36 6 8 mph 1008.1mb 49f 51f
12:30 5 8 mph 1007.9mb 49f 51f
12:24 3 7 mph 1008mb 49f 51f
12:18 5 7 mph 1008.2mb 49f 50f
12:12 7 13 mph 1008mb 49f 50f
12:06 7
mph
1007.8mb 49f 51f
12:00 6 7 mph 1007.7mb 49f 51f
Qua 11/26 11:54 7 9 mph 1007.7mb 49f 51f
11:48 8 10 mph 1007.8mb 49f 51f
11:36 3 6 mph 1008mb 49f 50f
11:30 2 3 mph 1008mb 49f 50f
11:24 2 3 mph 1008.1mb 49f 50f
11:18 1 5 mph 1008mb 49f 50f
11:12 2 3 mph 1008.1mb 49f 50f
11:06 2 3 mph 1008.1mb 49f 50f
11:00 5 6 mph 1008mb 49f 50f
10:54 5 6 mph 1008mb 49f 50f
10:48 5 6 mph 1008mb 49f 50f
10:36 2 5 mph 1008.2mb 49f 50f
10:30 3 6 mph 1008mb 49f 50f
10:24 5 6 mph 1008.1mb 49f 50f
10:18 3
mph
1008.4mb 49f 50f
10:12 2 3 mph 1008.5mb 49f 50f
10:06 3 6 mph 1008.3mb 49f 49f
10:00  -  3 mph 1008.5mb 49f 49f
9:54 1 3 mph 1008.4mb 49f 49f
9:48 3 5 mph 1008.4mb 49f 49f
9:36 2 5 mph 1008.4mb 49f 50f
9:30 2 5 mph 1008.7mb 49f 50f
9:24 3 5 mph 1008.8mb 49f 50f
9:18 2 3 mph 1008.6mb 49f 51f
9:12 5 7 mph 1008.9mb 49f 51f
9:06  -  5 mph 1008.9mb 49f 51f
9:00 2 5 mph 1008.8mb 49f 51f
8:54 3 5 mph 1008.9mb 49f 51f
8:48 1 6 mph 1008.8mb 49f 51f
8:36 2 5 mph 1008.9mb 49f 52f
8:30 6 7 mph 1009.2mb 49f 51f
8:24 3 5 mph 1009mb 49f 51f
8:18 1 5 mph 1008.9mb 49f 51f
8:12 2 5 mph 1009mb 49f 51f
8:06 5 6 mph 1009.2mb 49f 51f
8:00 2 5 mph 1009.2mb 49f 51f
7:54 3 5 mph 1009.3mb 49f 51f
7:48  -  1 mph 1009.6mb 49f 52f
7:36 1 3 mph 1009.9mb 49f 51f
7:30 2 3 mph 1009.6mb 49f 52f
7:24  -  2 mph 1009.9mb 49f 52f
7:18 2
mph
1010.2mb 49f 52f
7:12 3 6 mph 1010.1mb 49f 52f
7:06 3 6 mph 1010.3mb 49f 52f
7:00 3 5 mph 1010.3mb 49f 52f
6:54 3 5 mph 1010.4mb 49f 52f
6:48 5
mph
1010.2mb 49f 51f
6:36 1 2 mph 1010.7mb 49f 52f
6:30 2 3 mph 1010.9mb 49f 52f
6:24 1 3 mph 1011mb 49f 52f
6:18  -  6 mph 1011.6mb 49f 53f
6:12 3 6 mph 1011.9mb 49f 53f
6:06 5 6 mph 1011.9mb 49f 52f
6:00 3 5 mph 1012mb 49f 52f
5:54 1
mph
1011.8mb 49f 51f
5:48  -  3 mph 1011.8mb 49f 51f
5:36 1 2 mph 1011.9mb 49f 51f
5:30  -  2 mph 1012.1mb 49f 51f
5:24  -  5 mph 1012.2mb 49f 51f
5:18  -  5 mph 1012.4mb 49f 51f
5:12 1 3 mph 1012.6mb 49f 51f
5:06 3 5 mph - - -
5:00 1 2 mph - - -
4:54  -  2 mph 1012.9mb 49f 52f
4:48 1 2 mph 1013mb 49f 52f
4:36 1 2 mph 1013.4mb 49f 52f
4:30 3 5 mph - - -
4:24 2 3 mph 1013.5mb 49f 54f
4:18 1 3 mph 1013.7mb 49f 54f
4:12 3 6 mph 1013.9mb 49f 54f
4:06 5
mph
1014mb 49f 53f
4:00 2 3 mph 1013.8mb 49f 52f
3:54  -  2 mph 1013.5mb 49f 52f
3:48 1 2 mph 1013.6mb 49f 53f
3:36  -  2 mph 1014mb 49f 53f
3:30  -  1 mph 1014.1mb 49f 53f
3:24  -  3 mph 1014.3mb 49f 53f
3:18 1 3 mph 1014.3mb 49f 54f
3:12  -  2 mph 1014.5mb 49f 53f
3:06 1 2 mph 1014.6mb 49f 53f
3:00  -  2 mph - - -
2:54 2
mph
1014.5mb 49f 53f
2:48 2
mph
1014.6mb 49f 52f
2:36  -  3 mph 1014.6mb 49f 53f
2:30 2 3 mph 1014.5mb 49f 52f
2:24 3 5 mph 1014.4mb 49f 51f
2:18 5 6 mph 1014.6mb 49f 52f
2:12 3 6 mph - - -
2:06 3 7 mph 1014.8mb 49f 52f
2:00 7 8 mph 1014.6mb 49f 52f
1:54 5 6 mph 1015.1mb 49f 52f
1:48 5 6 mph 1015.2mb 49f 53f
1:36 2
mph
1015.6mb 49f 53f
1:30  -  5 mph 1015.6mb 49f 53f
1:24  -  2 mph 1015.6mb 49f 54f
1:18  -  3 mph 1015.6mb 49f 53f
1:12 2 3 mph 1015.7mb 49f 52f
1:06 2 3 mph 1015.9mb 49f 52f
1:00 3
mph
- - -
12:54 1 2 mph 1016.4mb 49f 53f
12:48 1 2 mph 1016.4mb 49f 53f
12:36 2
mph
1016.4mb 49f 54f
12:30 2 3 mph 1016.3mb 49f 53f
12:24 3
mph
1016.2mb 49f 52f
12:18 2 3 mph 1016.3mb 49f 52f
12:12 2
mph
1016.6mb 49f 51f
12:06  -  2 mph 1016.6mb 49f 52f
12:00  -  2 mph 1016.7mb 49f 51f
11:54 2
mph
1016.8mb 49f 51f
11:48  -  2 mph 1016.9mb 49f 52f
11:36 5
mph
1017.3mb 49f 51f
11:30 1 2 mph 1017.3mb 49f 52f
11:24  -  2 mph 1017.2mb 49f 53f
11:18 2
mph
1017.1mb 49f 53f
11:12 1 2 mph 1017.4mb 49f 53f
11:06 2 3 mph 1017.5mb 49f 53f
11:00 2 3 mph 1017.5mb 49f 52f
10:54  -  1 mph 1017.4mb 49f 51f
10:48  -  1 mph - - -
10:36 2 5 mph 1017.5mb 49f 51f
10:30 2 3 mph 1017.6mb 49f 52f
10:24 2 6 mph 1017.5mb 49f 50f
10:18 3 5 mph 1017.5mb 49f 50f
10:12 3
mph
1017.6mb 49f 49f
10:06 3 5 mph 1017.5mb 49f 49f
10:00  -  2 mph 1017.3mb 49f 51f
9:54 1 2 mph 1017.2mb 49f 50f
9:48 2 3 mph 1017.3mb 49f 49f
9:36 1 2 mph 1017.4mb 49f 49f
9:30 1 3 mph 1017.6mb 49f 48f
9:24 1 2 mph 1017.7mb 49f 48f
9:18 2
mph
1017.7mb 49f 48f
9:12  -  2 mph 1017.7mb 49f 48f
9:06 2
mph
1017.7mb 49f 48f
9:00 1 2 mph 1017.8mb 49f 48f
8:54 1 2 mph 1018.1mb 49f 48f
8:48 2
mph
- - -
8:36 1 2 mph 1018.1mb 49f 47f
8:30  -  2 mph 1018.1mb 49f 47f
8:24 1 2 mph 1018.4mb 49f 47f
8:18  -  2 mph 1018.4mb 49f 47f
8:12 2 3 mph 1018.5mb 49f 47f
8:06 3
mph
1018.4mb 49f 47f
8:00  -  1 mph 1018.4mb 49f 47f
7:54  -  1 mph 1018.6mb 49f 46f
7:48  -  2 mph 1018.6mb 49f 47f
7:36 1 2 mph 1018.6mb 49f 47f
7:30  -  3 mph 1018.7mb 49f 47f
7:24 1 3 mph 1018.7mb 49f 47f
7:18 2 3 mph 1018.8mb 49f 46f
7:12 1 2 mph 1018.8mb 49f 46f
7:06 2
mph
1018.7mb 49f 46f
7:00 2 3 mph 1018.6mb 49f 46f
6:54  -  3 mph 1018.6mb 49f 47f
6:48  -  8 mph 1018.5mb 49f 46f
6:36 2 5 mph 1018.4mb 49f 45f
6:30 2 3 mph 1018.3mb 49f 46f
6:24 3 5 mph 1018.3mb 49f 45f
6:18 1 3 mph 1018.1mb 49f 45f
6:12  -  2 mph 1018mb 49f 45f
6:06 1 3 mph 1018mb 49f 46f
6:00 3 6 mph 1018.1mb 49f 44f
5:54 2 3 mph 1018mb 49f 44f
5:48 2 5 mph 1018mb 49f 44f
5:36 1 3 mph 1018.2mb 49f 44f
5:30 1 2 mph 1018.3mb 49f 45f
5:24 2
mph
1018.6mb 49f 45f
5:18 1 6 mph 1018.6mb 49f 44f
5:12 1 3 mph 1018.5mb 49f 45f
5:06 3 5 mph 1018.5mb 49f 45f
5:00 2 6 mph 1018.5mb 49f 45f
4:54 5 7 mph 1018.5mb 49f 44f
4:48 3 5 mph 1018.4mb 49f 44f
4:36 2 3 mph 1018.6mb 49f 44f
4:30 2 3 mph 1018.7mb 49f 44f
4:24 1 2 mph 1018.7mb 49f 44f
4:18 1 6 mph 1018.8mb 49f 44f
4:12 2 3 mph 1018.8mb 49f 44f
4:06 2 6 mph 1019mb 49f 44f
4:00 2 3 mph 1019.2mb 49f 44f
3:54 2 5 mph 1019.3mb 49f 45f
3:48 2 7 mph 1019.2mb 49f 44f
3:36 2 6 mph 1019.3mb 49f 44f
3:30 3 8 mph 1019.5mb 49f 45f
3:24 3 8 mph 1019.5mb 49f 44f
3:18 3
mph
1019.5mb 49f 44f
3:12 3 5 mph 1019.5mb 49f 44f
3:06 3 5 mph 1019.6mb 49f 44f
3:00 2 3 mph 1019.5mb 49f 44f
2:54 2 5 mph 1019.8mb 49f 45f
2:48 1 3 mph 1019.8mb 49f 45f
2:36 2 3 mph 1019.8mb 49f 46f
2:30 2 3 mph 1019.9mb 49f 46f
2:24 3 5 mph 1019.8mb 49f 46f
2:18 1 3 mph 1019.7mb 49f 45f
2:12 3
mph
1019.5mb 49f 46f
2:06 3 5 mph 1019.5mb 49f 45f
2:00 1 6 mph 1019.6mb 49f 46f
1:54 5 7 mph 1019.7mb 49f 46f
1:48 5 8 mph 1019.7mb 49f 46f
1:36 3 5 mph 1019.6mb 49f 46f
1:30 3 6 mph 1019.5mb 49f 46f
1:24 3 5 mph 1019.5mb 49f 46f
1:18 3 5 mph 1019.6mb 49f 46f
1:12 2 5 mph 1019.4mb 49f 46f
1:06 3
mph
1019.3mb 49f 46f
1:00 1 2 mph 1019.5mb 49f 46f
12:54 2 3 mph 1019.4mb 49f 46f
12:48 3 6 mph 1019.6mb 49f 46f
12:36 3 5 mph 1020.2mb 49f 46f
12:30 3
mph
1020.2mb 49f 46f
12:24  -  1 mph 1020.2mb 49f 46f
12:18  -  1 mph 1020.1mb 49f 46f
12:12  -  1 mph 1020.1mb 49f 46f
12:06 1 2 mph 1020mb 49f 46f
12:00 2 5 mph 1020.2mb 49f 46f
Ter 11/25 11:54 1 3 mph 1020.1mb 49f 46f
11:48 2 3 mph 1020.1mb 49f 46f
11:36 2 3 mph 1020.1mb 49f 46f
11:30 1 6 mph 1020.1mb 49f 46f
11:24 3 5 mph 1020mb 49f 46f
11:18 1 5 mph 1020mb 49f 46f
11:12 5 6 mph 1020.2mb 49f 46f
11:06  -  3 mph 1020.3mb 49f 46f
11:00 2 3 mph 1020.2mb 49f 46f
10:54 2 3 mph 1020.1mb 49f 46f
10:48 1 6 mph 1020mb 49f 46f
10:36 2 3 mph 1020.1mb 49f 46f
10:30 2
mph
1019.9mb 49f 46f
10:24 1 3 mph 1020mb 49f 46f
10:18 2 3 mph 1020.1mb 49f 46f
10:12 3 6 mph 1020mb 49f 46f
10:06 3 5 mph 1020.1mb 49f 46f
10:00 5 6 mph 1020.2mb 49f 46f
9:54 5 6 mph 1020.2mb 49f 46f
9:48 3 6 mph 1020.3mb 49f 46f
9:36 6 8 mph 1020.4mb 49f 46f
9:30 6 7 mph 1020.2mb 49f 46f
9:24 3 5 mph 1020.3mb 49f 46f
9:18 5 7 mph 1020.3mb 49f 46f
9:12 6 9 mph 1020.2mb 49f 46f
9:06 7 9 mph 1020.2mb 49f 46f
9:00 7 8 mph 1020.2mb 49f 46f
8:54 7 8 mph 1020.3mb 49f 46f
8:48 7 8 mph 1020.2mb 49f 46f
8:36 7 8 mph 1020.3mb 49f 46f
8:30 7 8 mph 1020.3mb 49f 46f
8:24 7 9 mph 1020.5mb 49f 46f
8:18 8 9 mph 1020.4mb 49f 46f
8:12 8 10 mph 1020.5mb 49f 46f
8:06 8 10 mph 1020.7mb 49f 46f
8:00 8 10 mph 1020.7mb 49f 46f
7:54 8 10 mph 1020.5mb 49f 46f
7:48 8 10 mph 1020.4mb 49f 46f
7:36 8 10 mph 1020.3mb 49f 46f
7:30 8 9 mph 1020.5mb 49f 46f
7:24 8 10 mph 1020.7mb 49f 46f
7:18 9 11 mph 1020.6mb 49f 46f
7:12 8 10 mph 1020.4mb 49f 46f
7:06 8 10 mph 1020.4mb 49f 46f
7:00 8 10 mph 1020.5mb 49f 46f
6:54 8 10 mph 1020.6mb 49f 46f
6:48 8 10 mph 1020.6mb 49f 46f
6:36 8 10 mph 1020.8mb 49f 46f
6:30 9 10 mph 1020.8mb 49f 46f
6:24 8 10 mph 1021mb 49f 46f
6:18 9 10 mph 1021.1mb 49f 46f
6:12 10 11 mph 1021mb 49f 46f
6:06 9 11 mph 1021.1mb 49f 46f
6:00 10 11 mph 1021.2mb 49f 46f
5:54 8 10 mph 1021.2mb 49f 46f
5:48 9 10 mph 1021.2mb 49f 46f
5:36 9 11 mph 1021.3mb 49f 46f
5:30 9 11 mph 1021.4mb 49f 46f
5:24 10 11 mph 1021.2mb 49f 46f
5:18 10 11 mph 1021.2mb 49f 46f
5:12 10 11 mph 1021.2mb 49f 46f
5:06 10 13 mph 1021.4mb 49f 46f
5:00 10 11 mph 1021.3mb 49f 46f
4:54 9 11 mph 1021.5mb 49f 46f
4:48 9 10 mph 1021.5mb 49f 46f
4:36 10 13 mph 1021.6mb 49f 46f
4:30 10 13 mph 1021.6mb 49f 46f
4:24 10 13 mph 1021.6mb 49f 46f
4:18 11 13 mph 1021.7mb 49f 46f
4:12 10 13 mph 1021.8mb 49f 46f
4:06 9 10 mph 1021.8mb 49f 46f
4:00 9 11 mph 1021.9mb 49f 46f
3:54 10 11 mph 1021.9mb 49f 46f
3:48 9 13 mph 1022mb 49f 46f
3:36 10 11 mph 1022.1mb 49f 46f
3:30 10 11 mph 1022.1mb 49f 46f
3:24 10 13 mph 1022.3mb 49f 46f
3:18 10 13 mph 1022.2mb 49f 46f
3:12 10
mph
1022.2mb 49f 47f
3:06 7 9 mph 1022.2mb 49f 47f
3:00 9 10 mph 1022.3mb 49f 47f
2:54 8 9 mph 1022.4mb 49f 47f
2:48 7 10 mph 1022.4mb 49f 47f
2:36 8 9 mph 1022.3mb 49f 47f
2:30 8 9 mph 1022.4mb 49f 47f
2:24 8 9 mph 1022.5mb 49f 46f
2:18 7 8 mph 1022.6mb 49f 46f
2:12 7 9 mph 1022.5mb 49f 46f
2:06 6 9 mph 1022.7mb 49f 46f
2:00 7 9 mph 1022.7mb 49f 46f
1:54 7 10 mph 1022.6mb 49f 46f
1:48 9 10 mph 1022.7mb 49f 46f
1:36 9 11 mph 1022.9mb 49f 46f
1:30 11 13 mph 1022.9mb 49f 46f
1:24 11 14 mph 1022.9mb 49f 46f
1:18 13 14 mph 1022.9mb 49f 46f
1:12 11 14 mph 1023mb 49f 47f
1:06 13 14 mph 1023mb 49f 47f
1:00 11 14 mph 1023.1mb 49f 47f
12:54 7 11 mph 1023.1mb 49f 47f
12:48 6 9 mph 1023.1mb 49f 47f
12:36 7 9 mph 1023.2mb 49f 47f
12:30 8 11 mph 1023.2mb 49f 47f
12:24 8 11 mph 1023.2mb 49f 47f
12:18 9 10 mph 1023.1mb 49f 47f
12:12 6 8 mph 1023.1mb 49f 47f
12:06 6 9 mph 1023.1mb 49f 47f
12:00 8 9 mph 1023.1mb 49f 47f
11:54 7 9 mph 1023.3mb 49f 47f
11:48 7 8 mph 1023.2mb 49f 47f
11:36 6 8 mph 1023.2mb 49f 47f
11:30 5 7 mph 1023.3mb 49f 47f
11:24 5 7 mph 1023.3mb 49f 47f
11:18 5 7 mph 1023.4mb 49f 47f
11:12 5 7 mph 1023.3mb 49f 47f
11:06 5 7 mph 1023.6mb 49f 47f
11:00 5 8 mph - - -
10:54 5 7 mph 1023.6mb 49f 47f
10:48 3 6 mph 1023.7mb 49f 47f
10:36 3 5 mph 1023.8mb 49f 47f
10:30 5 6 mph 1023.8mb 49f 47f
10:24 5 6 mph 1023.8mb 49f 47f
10:18 5 6 mph 1023.7mb 49f 47f
10:12 5 6 mph 1023.8mb 49f 47f
10:06 6 7 mph 1023.8mb 49f 47f
10:00 3 6 mph 1023.8mb 49f 47f
9:54 5
mph
1023.9mb 49f 47f
9:48 3 6 mph 1023.7mb 49f 47f
9:36 5 6 mph 1023.5mb 49f 47f
9:30 5 7 mph 1023.5mb 49f 47f
9:24 6 8 mph 1023.4mb 49f 47f
9:18 7 8 mph 1023.5mb 49f 47f
9:12 7 8 mph 1023.6mb 49f 47f
9:06 7 8 mph 1023.4mb 49f 47f
9:00 5 6 mph 1023.1mb 49f 47f
8:54 2 3 mph 1023.2mb 49f 47f
8:48 2 5 mph 1023.3mb 49f 47f
8:36 6 7 mph 1023.1mb 49f 47f
8:30 6
mph
1023.1mb 49f 47f
8:24 6 7 mph 1023mb 49f 47f
8:18 7
mph
1022.9mb 49f 47f
8:12 5 6 mph 1022.9mb 49f 47f
8:06 3 6 mph 1023mb 49f 47f
8:00 6 8 mph 1022.8mb 49f 47f
7:54 6 8 mph 1022.7mb 49f 47f
7:48 8 9 mph 1022.8mb 49f 47f
7:36 6 8 mph 1022.8mb 49f 47f
7:30 1
mph
1022.6mb 49f 47f
7:24 1 2 mph 1022.7mb 49f 47f
7:18 3
mph
1022.7mb 49f 47f
7:12 2
mph
1022.6mb 49f 47f
7:06  -  1 mph 1022.7mb 49f 47f
7:00  -  1 mph 1022.8mb 49f 47f
6:54 1 2 mph 1022.9mb 49f 47f
6:48 1 2 mph 1022.8mb 49f 47f
6:36 2 3 mph 1022.6mb 49f 47f
6:30 1 2 mph 1022.6mb 49f 47f
6:24  -  2 mph 1022.5mb 49f 47f
6:18  -  2 mph 1022.5mb 49f 47f
6:12 1 2 mph 1022.4mb 49f 47f
6:06 2 5 mph 1022.2mb 49f 47f
6:00 5 6 mph 1022.1mb 49f 47f
5:54 3
mph
1022.4mb 49f 47f
5:48 2 3 mph 1022.4mb 49f 47f
5:36 5 6 mph 1022.1mb 49f 47f
5:30 5 7 mph 1022.1mb 49f 47f
5:24 8 9 mph 1021.9mb 49f 47f
5:18 8 9 mph 1021.9mb 49f 47f
5:12 6 7 mph 1022mb 49f 47f
5:06 5 7 mph 1021.7mb 49f 47f
5:00 8 11 mph 1021.5mb 49f 47f
4:54 10 13 mph 1021.4mb 49f 47f
4:48 11 13 mph 1021.2mb 49f 48f
4:36 8 15 mph 1021.2mb 49f 48f
4:30 14 15 mph 1021.1mb 49f 48f
4:24 7 11 mph 1021.1mb 49f 48f
4:18 11 14 mph 1021.1mb 49f 48f
4:12 11 13 mph 1021.1mb 49f 48f
4:06 10 11 mph 1021.2mb 49f 48f
4:00 9 10 mph 1021.3mb 49f 48f
3:54 8 10 mph 1021.2mb 49f 48f
3:48 10 11 mph 1021.2mb 49f 48f
3:36 5 6 mph 1021.2mb 49f 48f
3:30 5 7 mph 1021.1mb 49f 48f
3:24 3 6 mph 1021.1mb 49f 48f
3:18 5 6 mph 1020.9mb 49f 48f
3:12 2 3 mph 1021mb 49f 48f
3:06 2 3 mph 1021.1mb 49f 48f
3:00 1 2 mph 1021.2mb 49f 48f
2:54  -  2 mph 1021.1mb 49f 48f
2:48 1
mph
1021mb 49f 48f
2:36 2
mph
1020.9mb 49f 48f
2:30 2 3 mph 1020.9mb 49f 48f
2:24 3 5 mph 1020.8mb 49f 48f
2:18 3 5 mph 1020.8mb 49f 48f
2:12 2
mph
1020.8mb 49f 48f
2:06 1 2 mph 1020.8mb 49f 47f
2:00  -  1 mph 1020.7mb 49f 47f
1:54 2 3 mph 1020.5mb 49f 48f
1:48  -  1 mph 1020.4mb 49f 47f
1:36 1
mph
1020.3mb 49f 48f
1:30 1 2 mph 1020.2mb 49f 47f
1:24 2
mph
1020.2mb 49f 47f
1:18 2 3 mph 1020.2mb 49f 47f
1:12  -  1 mph 1020.1mb 49f 48f
1:06  -  2 mph 1020mb 49f 47f
1:00 5 6 mph 1019.9mb 49f 48f
12:54 2 3 mph 1020mb 49f 48f
12:48 2 7 mph 1019.9mb 49f 47f
12:36 3 5 mph 1019.6mb 49f 46f
12:30 3 5 mph 1019.5mb 49f 46f
12:24 3 5 mph 1019.3mb 49f 46f
12:18 2 3 mph 1019.4mb 49f 46f
12:12 2 6 mph 1019.3mb 49f 46f
12:06 3 6 mph 1019.2mb 49f 46f
12:00 2 3 mph 1019mb 49f 46f
Seg 11/24 11:54 3 5 mph 1018.9mb 49f 46f
11:48  -  2 mph 1018.8mb 49f 46f
11:36 3 5 mph 1018.5mb 49f 46f
11:30 5
mph
1018.5mb 49f 46f
11:24 5 7 mph 1018.5mb 49f 45f
11:18 3 6 mph 1018.4mb 49f 45f
11:12 5 6 mph 1018.5mb 49f 46f
11:06 1 3 mph 1018.4mb 49f 45f
11:00 3 5 mph 1018.2mb 49f 45f
10:54 2
mph
1017.9mb 49f 46f
10:48  -  1 mph 1018.2mb 49f 46f
10:36 2 3 mph 1017.8mb 49f 46f
10:30 3
mph
1017.8mb 49f 46f
10:24 3 5 mph 1017.8mb 49f 46f
10:18 3 6 mph 1018mb 49f 46f
10:12 1 2 mph 1018.1mb 49f 46f
10:06 2 3 mph 1018mb 49f 46f
10:00 5 6 mph 1017.9mb 49f 46f
9:54 3 6 mph 1017.9mb 49f 46f
9:48 3 5 mph 1018.1mb 49f 46f
9:36 1 5 mph 1017.9mb 49f 46f
9:30 2 7 mph 1017.9mb 49f 47f
9:24 3 5 mph 1017.9mb 49f 46f
9:18 3 5 mph 1017.8mb 49f 46f
9:12 2 5 mph 1017.6mb 49f 45f
9:06 3 7 mph 1017.4mb 49f 45f
9:00 5 7 mph 1017.3mb 49f 45f
8:54 3 5 mph 1017.4mb 49f 45f
8:48 2
mph
1017.5mb 49f 45f
8:36 2 3 mph 1017mb 49f 45f
8:30 2 3 mph 1017.2mb 49f 45f
8:24 3 5 mph 1017.2mb 49f 45f
8:18 5 6 mph 1017.3mb 49f 45f
8:12 5 6 mph 1017.2mb 49f 45f
8:06 3 5 mph 1017.2mb 49f 45f
8:00 1 2 mph 1017.1mb 49f 45f
7:54 1 5 mph 1016.9mb 49f 45f
7:48 3 5 mph 1016.8mb 49f 45f
7:36 3 5 mph 1017.2mb 49f 45f
7:30 3 5 mph 1017.2mb 49f 46f
7:24  -  2 mph 1017.2mb 49f 46f
7:18 3
mph
1017.2mb 49f 46f
7:12 1 3 mph 1017mb 49f 46f
7:06 2 3 mph 1016.9mb 49f 46f
7:00 2 3 mph 1016.9mb 49f 45f
6:54 3 6 mph 1016.8mb 49f 45f
6:48 3 5 mph 1017mb 49f 45f
6:36 3 5 mph 1017.4mb 49f 46f
6:30 5 6 mph 1017.5mb 49f 46f
6:24 3 5 mph 1017.6mb 49f 46f
6:18 2 5 mph 1017.7mb 49f 46f
6:12 2 5 mph 1017.7mb 49f 47f
6:06 3 6 mph 1017.6mb 49f 47f
6:00 5 9 mph 1017.6mb 49f 47f
5:54 8
mph
1017.2mb 49f 47f
5:48 7 10 mph 1017mb 49f 47f
5:36 3 7 mph 1016.8mb 49f 46f
5:30 2 5 mph 1016.8mb 49f 46f
5:24 3 5 mph 1016.8mb 49f 46f
5:18 2 5 mph 1016.5mb 49f 46f
5:12 3 5 mph 1016.7mb 49f 47f
5:06 2 5 mph 1016.9mb 49f 47f
5:00 3 5 mph 1017mb 49f 47f
4:54 2 6 mph 1017.2mb 49f 46f
4:48 5 7 mph 1017.3mb 49f 46f
4:36 6 8 mph 1017.9mb 49f 46f
4:30 8 11 mph 1018.4mb 49f 46f
4:24 5 6 mph 1018.4mb 49f 46f
4:18 2 6 mph 1018.6mb 49f 46f
4:12 2 5 mph 1018.8mb 49f 46f
4:06 1 2 mph 1019mb 49f 46f
4:00 3 5 mph 1019mb 49f 46f
3:54 6 7 mph 1019mb 49f 46f
3:48 6
mph
1019.1mb 49f 46f
3:36 5
mph
- - -
3:30 3 5 mph 1020.1mb 49f 46f
3:24 3 5 mph 1020.4mb 49f 46f
3:18 1 2 mph 1020.6mb 49f 46f
3:12 1 2 mph - - -
3:06 1 2 mph 1020.6mb 49f 46f